Flight Track Log - Related Links

Times and Time Zones

All times are in EDT time to prevent confusion due to time zone crossing. See the N560GL flight status page for this flight to view local times or setup timezone preferences in your user account.


Time Position Orientation Groundspeed Altitude Reporting Facility
EDT Latitude Longitude Course Direction KTS MPH feet Rate Location/Type
Mon 10:15:21 AM 29.9714 -81.3606 North 181 208 1,200  Level Jacksonville Center
Mon 10:16:35 AM 30.0381 -81.3497 North 220 253 5,100 2,933 Climbing Jacksonville Center
Mon 10:17:36 AM 30.1047 -81.3392 North 232 267 7,800 2,318 Climbing Jacksonville Center
Mon 10:18:03 AM 30.1381 -81.3361 North 252 290 8,500 1,744 Climbing Jacksonville Center
Mon 10:19:02 AM 30.2236 -81.3275 North 280 322 10,300 1,757 Climbing Jacksonville Center
Mon 10:21:00 AM 30.4359 -81.3000 North  Level FlightAware Approximate
Mon 10:25:03 AM 30.7994 -81.2964 North 349 402 20,800  Level Jacksonville Center
Mon 10:26:03 AM 30.8933 -81.2875 North 344 396 22,600 1,750 Climbing Jacksonville Center
Mon 10:27:03 AM 30.9892 -81.2833 North 344 396 24,300 1,450 Climbing Jacksonville Center
Mon 10:28:00 AM 31.1727 -81.1470 23° Northeast  Level FlightAware Approximate
Mon 10:28:03 AM 31.0831 -81.2769 North 344 396 25,500  Level Jacksonville Center
Mon 10:29:00 AM 31.2787 -81.1333 North  Level FlightAware Approximate
Mon 10:29:03 AM 31.1853 -81.2703 North 349 402 26,900  Level Jacksonville Center
Mon 10:30:00 AM 31.3857 -81.1500 North  Level FlightAware Approximate
Mon 10:30:03 AM 31.2856 -81.2639 North 354 407 28,400  Level Jacksonville Center
Mon 10:32:03 AM 31.4614 -81.1464 30° Northeast 387 445 30,900 1,267 Climbing Jacksonville Center
Mon 10:33:03 AM 31.5544 -81.0764 33° Northeast 387 445 32,200 1,250 Climbing Jacksonville Center
Mon 10:34:03 AM 31.6556 -81.0011 32° Northeast 387 445 33,400 1,000 Climbing Jacksonville Center
Mon 10:36:03 AM 31.8417 -80.8897 27° Northeast 387 445 35,200 838 Climbing Jacksonville Center
Mon 10:37:02 AM 31.9475 -80.8506 17° North 387 445 35,900 800 Climbing Jacksonville Center
Mon 10:38:03 AM 32.0617 -80.8114 16° North 387 445 36,800 800 Climbing Jacksonville Center
Mon 10:39:02 AM 32.1506 -80.7553 28° Northeast 393 452 37,500 807 Climbing Jacksonville Center
Mon 10:40:02 AM 32.2369 -80.6722 39° Northeast 393 452 38,400 843 Climbing Jacksonville Center
Mon 10:41:03 AM 32.3231 -80.5889 39° Northeast 393 452 39,200 523 Climbing Jacksonville Center
Mon 10:43:00 AM 32.4887 -80.4333 38° Northeast  Level Estimated
Mon 10:44:03 AM 32.5792 -80.3408 38° Northeast 393 452 40,500  Level Jacksonville Center
Mon 10:45:02 AM 32.6794 -80.2467 38° Northeast 402 463 40,900 167 Climbing Jacksonville Center
Mon 10:47:03 AM 32.8594 -80.0683 40° Northeast 417 480 41,000 33 Climbing Jacksonville Center
Mon 10:48:03 AM 32.9575 -79.9764 38° Northeast 428 493 41,000  Level Jacksonville Center
Mon 10:50:03 AM 33.1514 -79.7914 39° Northeast 439 505 41,000  Level Jacksonville Center
Mon 10:51:03 AM 33.2472 -79.6961 40° Northeast 444 511 41,000  Level Jacksonville Center
Mon 10:52:03 AM 33.3447 -79.6006 39° Northeast 444 511 41,000  Level Jacksonville Center
Mon 10:53:03 AM 33.4444 -79.5047 39° Northeast 444 511 41,000  Level Jacksonville Center
Mon 10:54:03 AM 33.5442 -79.4064 39° Northeast 444 511 41,000  Level Jacksonville Center
Mon 10:55:02 AM 33.6417 -79.3103 39° Northeast 450 518 41,000  Level Jacksonville Center
Mon 10:56:03 AM 33.7369 -79.2164 39° Northeast 450 518 41,000  Level Jacksonville Center
Mon 10:58:00 AM 33.8942 -79.0466 42° Northeast  Level FlightAware Approximate
Mon 11:00:02 AM 34.1297 -78.8286 40° Northeast 455 524 41,000  Level Jacksonville Center
Mon 11:02:14 AM 34.3294 -78.6272 40° Northeast 462 532 41,000  Level Washington Center
Mon 11:03:12 AM 34.4319 -78.5278 39° Northeast 462 532 41,000  Level Washington Center
Mon 11:04:12 AM 34.5283 -78.4281 40° Northeast 462 532 41,000  Level Washington Center
Mon 11:05:00 AM 34.4744 -78.4587 40° Northeast  Level FlightAware Approximate
Mon 11:05:13 AM 34.6267 -78.3331 38° Northeast 462 532 41,000  Level Washington Center
Mon 11:06:13 AM 34.7247 -78.2303 41° Northeast 462 532 41,000  Level Washington Center
Mon 11:07:13 AM 34.8211 -78.1269 41° Northeast 462 532 41,000  Level Washington Center
Mon 11:09:14 AM 35.0108 -77.9300 40° Northeast 446 513 41,000  Level Washington Center
Mon 11:11:12 AM 35.2128 -77.7197 40° Northeast 446 513 41,000  Level Washington Center
Mon 11:12:13 AM 35.3083 -77.6231 40° Northeast 446 513 41,000  Level Washington Center
Mon 11:13:14 AM 35.4061 -77.5261 39° Northeast 446 513 41,000  Level Washington Center
Mon 11:14:13 AM 35.5097 -77.4394 34° Northeast 446 513 41,000  Level Washington Center
Mon 11:16:14 AM 35.7106 -77.2625 36° Northeast 446 513 41,000  Level Washington Center
Mon 11:17:15 AM 35.8097 -77.1750 36° Northeast 446 513 41,000  Level Washington Center
Mon 11:18:12 AM 35.9089 -77.0819 37° Northeast 441 507 41,000  Level Washington Center
Mon 11:19:12 AM 36.0081 -76.9939 36° Northeast 441 507 41,000  Level Washington Center
Mon 11:20:13 AM 36.1092 -76.9083 34° Northeast 441 507 41,000  Level Washington Center
Mon 11:21:14 AM 36.2061 -76.8197 36° Northeast 436 502 41,000  Level Washington Center
Mon 11:22:14 AM 36.3050 -76.7311 36° Northeast 436 502 41,000  Level Washington Center
Mon 11:24:13 AM 36.5006 -76.5583 35° Northeast 430 495 41,000  Level Washington Center
Mon 11:25:14 AM 36.5992 -76.4717 35° Northeast 430 495 41,000  Level Washington Center
Mon 11:27:00 AM 36.7531 -76.3249 37° Northeast  Level FlightAware Approximate
Mon 11:28:13 AM 36.8908 -76.2022 37° Northeast 435 501 41,000  Level Washington Center
Mon 11:30:00 AM 37.0672 -76.0964 26° Northeast  Level FlightAware Approximate
Mon 11:33:13 AM 37.4469 -75.9111 31° Northeast 420 483 41,000  Level Washington Center
Mon 11:34:15 AM 37.5556 -75.8486 25° Northeast 420 483 41,000  Level Washington Center
Mon 11:35:12 AM 37.6558 -75.7703 32° Northeast 420 483 41,000  Level Washington Center
Mon 11:37:00 AM 37.7566 -75.6766 32° Northeast  Level FlightAware Approximate
Mon 11:37:00 AM 37.8102 -75.6150 38° Northeast  Level FlightAware Approximate
Mon 11:38:00 AM 37.8500 -75.6039 31° Northeast  Level FlightAware Approximate
Mon 11:38:13 AM 37.9167 -75.5206 39° Northeast 420 483 41,000  Level Washington Center
Mon 11:40:14 AM 38.1061 -75.3253 39° Northeast 415 478 41,000  Level Washington Center
Mon 11:41:12 AM 38.1975 -75.2297 39° Northeast 415 478 41,000  Level Washington Center
Mon 11:43:14 AM 38.3825 -75.0433 38° Northeast 415 478 41,000  Level Washington Center
Mon 11:44:00 AM 38.4083 -75.0047 39° Northeast  Level FlightAware Approximate
Mon 11:44:12 AM 38.4758 -74.9500 38° Northeast 420 483 41,000  Level Washington Center
Mon 11:45:13 AM 38.5669 -74.8561 39° Northeast 420 483 41,000  Level Washington Center
Mon 11:46:14 AM 38.6581 -74.7569 40° Northeast 420 483 41,000  Level Washington Center
Mon 11:48:00 AM 38.7979 -74.5842 39° Northeast  Level FlightAware Approximate
Mon 11:48:12 AM 38.8461 -74.5603 39° Northeast 408 470 41,000  Level Washington Center
Mon 11:50:13 AM 39.0258 -74.3814 38° Northeast 422 486 41,000  Level Washington Center
Mon 11:51:13 AM 39.1208 -74.2861 38° Northeast 428 493 41,000  Level Washington Center
Mon 11:53:50 AM 39.3531 -74.0389 39° Northeast 437 503 41,000  Level Boston Center
Mon 11:55:00 AM 39.4497 -73.9312 41° Northeast  Level FlightAware Approximate
Mon 11:56:50 AM 39.6117 -73.6869 39° Northeast 415 478 41,000  Level Boston Center
Mon 11:58:50 AM 39.7578 -73.4494 51° Northeast 415 478 40,500 -333 Descending Boston Center
Mon 11:59:50 AM 39.8256 -73.3317 53° Northeast 415 478 40,000 -1,300 Descending Boston Center
Mon 12:01:00 PM 39.9385 -73.2544 28° Northeast  Level FlightAware Approximate
Mon 12:01:50 PM 39.9603 -73.1061 28° Northeast 399 459 36,600  Level Boston Center
Mon 12:02:00 PM 40.0328 -73.2868 39° Northeast  Level FlightAware Approximate
Mon 12:03:00 PM 40.0414 -72.9777 50° Northeast  Level Estimated
Mon 12:04:02 PM 40.1053 -72.8661 50° Northeast 415 478 32,600  Level Boston Center
Mon 12:05:02 PM 40.1911 -72.7225 52° Northeast 415 478 30,100 -1,200 Descending Boston Center
Mon 12:07:00 PM 40.3276 -72.5049 51° Northeast  Level Estimated
Mon 12:07:02 PM 40.3311 -72.4783 51° Northeast 415 478 29,000  Level Boston Center
Mon 12:09:02 PM 40.4600 -72.2600 52° Northeast 415 478 29,000 -710 Level Boston Center
Mon 12:11:00 PM 40.5758 -72.0184 53° Northeast  Level FlightAware Approximate
Mon 12:13:14 PM 40.7706 -71.7467 50° Northeast 396 456 24,600  Level Boston Center
Mon 12:14:14 PM 40.8303 -71.6364 54° Northeast 377 434 22,400 -2,100 Descending Boston Center
Mon 12:15:14 PM 40.8836 -71.5231 58° Northeast 371 427 20,400 -1,750 Descending Boston Center
Mon 12:16:14 PM 40.9331 -71.4372 53° Northeast 371 427 18,900 -1,650 Descending Boston Center
Mon 12:17:14 PM 40.9986 -71.3181 54° Northeast 353 406 17,100 -1,800 Descending Boston Center
Mon 12:18:00 PM 41.0422 -71.2091 50° Northeast  Level FlightAware Approximate
Mon 12:18:14 PM 41.0519 -71.2372 49° Northeast 328 377 15,300  Level Boston Center
Mon 12:19:14 PM 41.1111 -71.1289 54° Northeast 328 377 13,400 -1,950 Descending Boston Center
Mon 12:20:14 PM 41.1600 -71.0422 53° Northeast 322 371 11,400 -1,550 Descending Boston Center
Mon 12:21:14 PM 41.2172 -70.9444 52° Northeast 317 365 10,300 -1,700 Descending Boston Center
Mon 12:22:14 PM 41.2850 -70.8794 36° Northeast 292 336 8,000 -2,100 Descending Boston Center
Mon 12:23:14 PM 41.3447 -70.8169 38° Northeast 282 325 6,100 -1,450 Descending Boston Center
Mon 12:24:14 PM 41.3978 -70.7464 45° Northeast 263 303 5,100 -567 Descending Boston Center
Mon 12:26:14 PM 41.4936 -70.6053 48° Northeast 251 289 4,400 -533 Descending Boston Center
Mon 12:27:14 PM 41.5361 -70.5322 52° Northeast 243 280 3,500 -700 Descending Boston Center
Mon 12:28:14 PM 41.5831 -70.4753 42° Northeast 238 274 3,000 -250 Descending Boston Center
Mon 12:29:14 PM 41.6281 -70.4350 34° Northeast 213 245 3,000 -350 Level Boston Center
Mon 12:30:14 PM 41.6733 -70.3972 32° Northeast 190 219 2,300 2,000 Descending Boston Center
Mon 12:33:14 PM 41.6814 -70.2719 43° Northeast 103 119 11,000 2,900 Climbing Boston Center

Login

Don't have an account? Register now (free) for customized features, flight alerts, and more!